Time;durP1;ratioP1;P1;durP2;ratioP2;P2;SDS_P1;SDS_P2;PMS_P1;PMS_P2;Temp;Humidity;BMP_temperature;BMP_pressure;BME280_temperature;BME280_humidity;BME280_pressure;Samples;Min_cycle;Max_cycle;Signal;HPM_P1;HPM_P2
2022/01/19 00:00:37;;;;;;;37.97;19.58;;;;;;;2.25;98.89;103245.94;5006606;28;20120;-59
2022/01/19 00:03:03;;;;;;;31.73;18.83;;;;;;;2.18;99.00;103233.84;5006514;28;20046;-60
2022/01/19 00:05:29;;;;;;;28.15;16.48;;;;;;;2.07;98.95;103226.50;5018929;28;20404;-59
2022/01/19 00:07:54;;;;;;;31.75;18.30;;;;;;;1.98;99.07;103219.09;5017566;28;20037;-59
2022/01/19 00:10:26;;;;;;;28.75;17.27;;;;;;;1.89;99.24;103208.94;5022683;28;20060;-59
2022/01/19 00:12:52;;;;;;;34.65;18.35;;;;;;;1.81;99.33;103211.34;5012646;28;20070;-59
2022/01/19 00:15:18;;;;;;;38.70;18.55;;;;;;;1.73;99.16;103216.50;5014019;28;20424;-59
2022/01/19 00:17:43;;;;;;;28.60;17.15;;;;;;;1.68;99.52;103218.69;5023511;28;20389;-59
2022/01/19 00:20:08;;;;;;;34.53;17.77;;;;;;;1.62;99.39;103225.41;5006838;28;20072;-59
2022/01/19 00:22:34;;;;;;;35.03;19.10;;;;;;;1.56;99.62;103215.03;5024647;28;20033;-60
2022/01/19 00:25:00;;;;;;;34.90;18.60;;;;;;;1.52;99.41;103217.13;5026975;28;20100;-59
2022/01/19 00:27:25;;;;;;;32.30;19.48;;;;;;;1.44;99.05;103207.81;5025710;28;20022;-59
2022/01/19 00:29:51;;;;;;;40.30;20.92;;;;;;;1.40;99.03;103187.38;5025861;28;20033;-60
2022/01/19 00:32:16;;;;;;;40.53;20.50;;;;;;;1.33;98.84;103172.56;5021721;28;20025;-59
2022/01/19 00:34:41;;;;;;;37.28;20.83;;;;;;;1.31;99.45;103153.72;5016249;28;20068;-59
2022/01/19 00:37:07;;;;;;;39.50;20.42;;;;;;;1.27;99.68;103146.81;5026023;28;20079;-60
2022/01/19 00:39:33;;;;;;;45.60;22.08;;;;;;;1.28;99.54;103126.88;5026501;28;20067;-60
2022/01/19 00:41:59;;;;;;;39.85;21.95;;;;;;;1.27;100.00;103115.19;5020937;28;20029;-59
2022/01/19 00:44:25;;;;;;;39.53;21.02;;;;;;;1.27;100.00;103119.75;5025411;28;20099;-59
2022/01/19 00:46:50;;;;;;;34.75;20.55;;;;;;;1.25;100.00;103121.69;5025498;28;20029;-59
2022/01/19 00:49:15;;;;;;;38.78;20.05;;;;;;;1.20;100.00;103145.53;5026030;28;20102;-58
2022/01/19 00:51:41;;;;;;;34.20;17.90;;;;;;;1.16;99.95;103152.13;5022357;28;20481;-59
2022/01/19 00:54:06;;;;;;;43.13;20.33;;;;;;;1.09;99.88;103157.13;5006294;28;20057;-60
2022/01/19 00:56:33;;;;;;;38.17;18.90;;;;;;;1.03;99.95;103161.16;5006006;28;20088;-60
2022/01/19 00:58:59;;;;;;;30.75;18.05;;;;;;;0.99;99.62;103166.91;5012321;28;20029;-59
2022/01/19 01:01:24;;;;;;;25.60;16.60;;;;;;;0.95;99.71;103166.25;5006966;28;20018;-59
2022/01/19 01:03:50;;;;;;;67.35;19.42;;;;;;;0.98;100.00;103165.19;5004795;28;20073;-59
2022/01/19 01:06:15;;;;;;;86.47;19.45;;;;;;;0.91;99.91;103159.34;5005594;28;20045;-59
2022/01/19 01:08:40;;;;;;;98.72;18.98;;;;;;;0.86;99.26;103139.00;5006049;28;20399;-59
2022/01/19 01:11:05;;;;;;;31.52;16.25;;;;;;;0.87;99.55;103127.22;5006441;28;20030;-60
2022/01/19 01:15:26;;;;;;;27.27;16.42;;;;;;;0.89;99.96;103123.41;5025946;28;20436;-59
2022/01/19 01:16:29;;;;;;;50.90;18.40;;;;;;;0.94;100.00;103105.00;5023813;28;20380;-59
2022/01/19 01:18:57;;;;;;;33.03;19.65;;;;;;;0.99;100.00;103102.81;5023943;28;20093;-59
2022/01/19 01:21:22;;;;;;;35.05;19.02;;;;;;;1.01;100.00;103095.47;5025345;28;20189;-59
2022/01/19 01:23:48;;;;;;;33.00;19.98;;;;;;;1.03;100.00;103087.25;5025450;28;20412;-59
2022/01/19 01:26:13;;;;;;;39.00;20.45;;;;;;;1.00;100.00;103077.47;5011761;28;20107;-59
2022/01/19 01:28:38;;;;;;;39.47;21.98;;;;;;;1.03;100.00;103065.59;5006238;28;20033;-59
2022/01/19 01:31:07;;;;;;;41.85;21.30;;;;;;;1.02;100.00;103059.31;5005690;28;20722;-59
2022/01/19 01:33:32;;;;;;;45.78;22.25;;;;;;;0.98;100.00;103055.09;5005503;28;20423;-60
2022/01/19 01:35:58;;;;;;;45.38;22.90;;;;;;;0.99;100.00;103046.00;5021043;28;20053;-59
2022/01/19 01:38:23;;;;;;;48.03;23.88;;;;;;;0.99;100.00;103021.66;5025030;28;20105;-59
2022/01/19 01:40:48;;;;;;;71.72;23.25;;;;;;;0.97;100.00;103011.94;5024280;28;20021;-59
2022/01/19 01:43:14;;;;;;;84.85;24.77;;;;;;;0.93;100.00;102995.06;5010843;28;20412;-59
2022/01/19 01:45:43;;;;;;;96.95;23.23;;;;;;;0.91;100.00;102998.84;5004485;28;20434;-59
2022/01/19 01:48:13;;;;;;;74.45;24.42;;;;;;;0.87;100.00;102997.38;5004744;28;20037;-59
2022/01/19 01:53:26;;;;;;;46.10;22.90;;;;;;;0.85;100.00;103029.06;5024628;28;20068;-58
2022/01/19 01:55:58;;;;;;;41.45;23.33;;;;;;;0.85;100.00;103027.22;5013004;28;20186;-59
2022/01/19 01:58:24;;;;;;;39.00;22.42;;;;;;;0.85;100.00;103027.22;5004949;28;20044;-59
2022/01/19 02:00:49;;;;;;;42.83;22.23;;;;;;;0.79;100.00;103022.28;5004021;28;20289;-59
2022/01/19 02:03:15;;;;;;;49.35;25.70;;;;;;;0.82;100.00;103032.88;5014676;28;20172;-59
2022/01/19 02:05:53;;;;;;;42.35;22.30;;;;;;;0.74;100.00;103021.75;5024467;28;20037;-59
2022/01/19 02:08:21;;;;;;;41.60;22.35;;;;;;;0.71;100.00;103021.97;5024455;28;20108;-58
2022/01/19 02:11:29;;;;;;;40.88;22.13;;;;;;;0.63;100.00;103029.78;5020652;28;20057;-59
2022/01/19 02:21:59;;;;;;;53.10;21.17;;;;;;;0.32;100.00;102975.25;5024730;28;20135;-59
2022/01/19 02:24:29;;;;;;;30.63;18.95;;;;;;;0.30;100.00;102974.47;5005885;28;20128;-59
2022/01/19 02:36:36;;;;;;;33.67;19.98;;;;;;;0.17;100.00;102933.13;5010633;28;20113;-59
2022/01/19 02:40:30;;;;;;;39.97;21.17;;;;;;;0.29;100.00;102929.53;5017954;28;20048;-59
2022/01/19 02:50:57;;;;;;;44.75;23.23;;;;;;;0.32;100.00;102918.50;5009222;28;20045;-59
2022/01/19 02:53:22;;;;;;;42.13;21.60;;;;;;;0.25;100.00;102901.00;5003521;28;20017;-59
2022/01/19 02:55:48;;;;;;;37.20;20.55;;;;;;;0.19;100.00;102885.22;5007940;28;20064;-59
2022/01/19 02:58:17;;;;;;;37.95;20.75;;;;;;;0.13;100.00;102880.28;5012146;28;20025;-58
2022/01/19 03:08:54;;;;;;;46.83;23.77;;;;;;;0.03;100.00;102852.22;4996993;23;20058;-59
2022/01/19 03:11:21;;;;;;;48.25;23.63;;;;;;;0.00;100.00;102842.53;4983037;28;20031;-59
2022/01/19 03:13:48;;;;;;;54.88;27.15;;;;;;;0.03;100.00;102836.00;4983094;28;20058;-59
2022/01/19 03:16:14;;;;;;;65.00;29.88;;;;;;;0.16;100.00;102823.34;4981472;28;20033;-59
2022/01/19 03:18:39;;;;;;;80.50;34.03;;;;;;;0.27;100.00;102831.50;4982650;28;20080;-59
2022/01/19 03:21:06;;;;;;;65.20;30.63;;;;;;;0.33;100.00;102828.31;4983109;28;20480;-60
2022/01/19 03:23:31;;;;;;;66.75;29.50;;;;;;;0.29;100.00;102832.22;4984475;28;20026;-59
2022/01/19 03:25:58;;;;;;;62.97;30.30;;;;;;;0.29;100.00;102825.97;4966490;28;20042;-59
2022/01/19 03:28:23;;;;;;;68.38;32.33;;;;;;;0.33;100.00;102817.50;4968791;28;20433;-59
2022/01/19 03:30:49;;;;;;;68.70;32.35;;;;;;;0.37;100.00;102819.00;4968120;28;20026;-59
2022/01/19 03:33:15;;;;;;;77.05;34.08;;;;;;;0.40;100.00;102823.31;4984395;28;20088;-59
2022/01/19 03:35:41;;;;;;;72.38;32.70;;;;;;;0.39;100.00;102827.84;4976322;28;20142;-59
2022/01/19 03:38:09;;;;;;;66.80;32.20;;;;;;;0.40;100.00;102826.88;4986030;28;20109;-59
2022/01/19 03:40:36;;;;;;;74.63;34.33;;;;;;;0.40;100.00;102821.47;4987707;28;20027;-59
2022/01/19 03:43:05;;;;;;;74.10;32.75;;;;;;;0.38;100.00;102803.66;4979145;28;20062;-60
2022/01/19 03:45:32;;;;;;;68.60;31.73;;;;;;;0.38;100.00;102803.66;4967872;28;20027;-59
2022/01/19 03:50:33;;;;;;;65.85;31.55;;;;;;;0.30;100.00;102798.81;4987854;28;20027;-59
2022/01/19 03:52:58;;;;;;;62.83;30.00;;;;;;;0.28;100.00;102779.16;4988118;28;20054;-59
2022/01/19 03:55:24;;;;;;;64.47;31.63;;;;;;;0.28;100.00;102779.16;4987353;28;20052;-59
2022/01/19 03:57:49;;;;;;;58.63;29.65;;;;;;;0.26;100.00;102775.72;4968275;28;20129;-59
2022/01/19 04:00:15;;;;;;;61.13;29.00;;;;;;;0.24;100.00;102764.16;4967602;28;20089;-59
2022/01/19 04:02:40;;;;;;;66.30;32.33;;;;;;;0.22;100.00;102766.97;4968420;28;20545;-59
2022/01/19 04:05:18;;;;;;;61.85;30.42;;;;;;;0.23;100.00;102762.44;4967887;28;20125;-59
2022/01/19 04:07:43;;;;;;;64.23;31.70;;;;;;;0.25;100.00;102760.47;4968095;28;20049;-59
2022/01/19 04:10:08;;;;;;;68.03;32.60;;;;;;;0.25;100.00;102755.97;4967703;28;20278;-59
2022/01/19 04:15:15;;;;;;;64.30;31.67;;;;;;;0.27;100.00;102754.97;4986640;28;20031;-59
2022/01/19 04:17:50;;;;;;;69.82;31.83;;;;;;;0.27;100.00;102761.22;4982873;28;20033;-59
2022/01/19 04:20:15;;;;;;;61.50;32.75;;;;;;;0.26;100.00;102762.22;4977065;28;20014;-59
2022/01/19 04:22:42;;;;;;;63.20;31.15;;;;;;;0.23;100.00;102757.03;4986181;28;20027;-59
2022/01/19 04:25:08;;;;;;;67.32;33.45;;;;;;;0.23;100.00;102766.00;4986017;28;20398;-59
2022/01/19 04:27:33;;;;;;;67.70;32.92;;;;;;;0.23;100.00;102767.84;4986920;28;20022;-59
2022/01/19 04:30:10;;;;;;;64.72;32.70;;;;;;;0.22;100.00;102766.13;4987152;28;20046;-58
2022/01/19 04:35:29;;;;;;;58.85;30.42;;;;;;;0.17;100.00;102768.31;4986567;28;20121;-59
2022/01/19 05:15:01;;;;;;;84.55;37.97;;;;;;;0.32;100.00;102740.13;4967612;28;20038;-59
2022/01/19 05:17:27;;;;;;;78.30;34.42;;;;;;;0.35;100.00;102745.28;4968006;28;20031;-59
2022/01/19 05:19:52;;;;;;;98.82;41.85;;;;;;;0.42;100.00;102745.69;4970096;28;20155;-59
2022/01/19 05:22:17;;;;;;;97.18;41.22;;;;;;;0.48;100.00;102737.09;4985012;28;20031;-59
2022/01/19 05:24:43;;;;;;;100.97;39.85;;;;;;;0.52;100.00;102744.84;4969452;28;20557;-59
2022/01/19 05:27:08;;;;;;;100.47;40.17;;;;;;;0.53;100.00;102743.00;4976670;28;20035;-59
2022/01/19 05:29:33;;;;;;;87.55;38.47;;;;;;;0.59;100.00;102741.66;4982537;28;20109;-60
2022/01/19 05:31:58;;;;;;;86.28;36.90;;;;;;;0.62;100.00;102736.91;4986557;28;20065;-59
2022/01/19 05:34:24;;;;;;;81.93;36.67;;;;;;;0.65;100.00;102741.19;4985722;28;20061;-59
2022/01/19 05:36:49;;;;;;;76.78;37.15;;;;;;;0.63;100.00;102732.34;4985968;28;20145;-59
2022/01/19 05:39:14;;;;;;;86.03;35.60;;;;;;;0.66;100.00;102732.09;4986040;28;20122;-59
2022/01/19 05:41:39;;;;;;;79.80;38.22;;;;;;;0.66;100.00;102729.38;4975586;28;20397;-61
2022/01/19 05:44:05;;;;;;;84.35;36.13;;;;;;;0.69;100.00;102721.03;4965204;28;20034;-61
2022/01/19 05:46:32;;;;;;;75.57;35.30;;;;;;;0.73;100.00;102725.25;4966227;28;20019;-60
2022/01/19 05:48:57;;;;;;;74.33;33.07;;;;;;;0.78;100.00;102720.31;4965171;28;20065;-60
2022/01/19 05:51:23;;;;;;;72.68;33.78;;;;;;;0.78;100.00;102723.03;4980356;28;20055;-60
2022/01/19 05:53:49;;;;;;;62.28;32.33;;;;;;;0.84;100.00;102708.16;4965790;28;20113;-60
2022/01/19 05:56:14;;;;;;;62.85;31.08;;;;;;;0.84;100.00;102727.94;4965517;28;20123;-60
2022/01/19 05:58:39;;;;;;;57.42;30.30;;;;;;;0.87;100.00;102716.91;4965712;28;20031;-61
2022/01/19 06:01:04;;;;;;;65.00;31.67;;;;;;;0.89;100.00;102716.78;4964432;28;20094;-61
2022/01/19 06:03:30;;;;;;;61.72;32.05;;;;;;;0.90;100.00;102719.34;4966111;28;20041;-60
2022/01/19 06:05:55;;;;;;;52.72;29.48;;;;;;;0.92;100.00;102713.84;4965322;28;20035;-60
2022/01/19 06:10:47;;;;;;;54.00;30.20;;;;;;;0.96;100.00;102708.06;4964958;28;20126;-60
2022/01/19 06:13:17;;;;;;;53.88;28.83;;;;;;;0.97;100.00;102708.94;4965064;28;20065;-60
2022/01/19 06:15:44;;;;;;;56.65;30.13;;;;;;;0.97;100.00;102711.63;4969899;28;20037;-61
2022/01/19 06:18:10;;;;;;;51.15;30.13;;;;;;;0.95;100.00;102709.03;4984765;28;20369;-60
2022/01/19 06:20:36;;;;;;;62.13;31.20;;;;;;;0.94;100.00;102704.59;4984539;28;20060;-61
2022/01/19 06:23:01;;;;;;;55.03;30.20;;;;;;;0.97;100.00;102703.50;4985058;28;20026;-61
2022/01/19 06:25:27;;;;;;;55.50;30.02;;;;;;;0.99;100.00;102693.41;4984902;28;20041;-60
2022/01/19 06:27:52;;;;;;;55.97;29.83;;;;;;;0.99;100.00;102682.59;4984182;28;20101;-60
2022/01/19 06:30:18;;;;;;;55.90;30.52;;;;;;;0.98;100.00;102678.16;4983016;28;20026;-60
2022/01/19 06:32:43;;;;;;;51.13;29.02;;;;;;;1.01;100.00;102672.50;4984719;28;20030;-60
2022/01/19 06:35:09;;;;;;;62.00;32.88;;;;;;;1.00;100.00;102663.53;4984518;28;20031;-61
2022/01/19 06:37:35;;;;;;;70.32;34.97;;;;;;;1.01;100.00;102672.50;4984776;28;20156;-61
2022/01/19 06:40:02;;;;;;;70.80;33.72;;;;;;;1.00;100.00;102668.94;4984845;28;20033;-60
2022/01/19 06:42:29;;;;;;;75.20;35.95;;;;;;;1.02;100.00;102666.13;4984306;28;20101;-60
2022/01/19 06:44:54;;;;;;;77.78;38.72;;;;;;;1.02;100.00;102658.88;4982982;28;20096;-60
2022/01/19 06:47:19;;;;;;;80.05;40.10;;;;;;;1.03;100.00;102659.72;4983914;28;20031;-61
2022/01/19 06:49:45;;;;;;;77.97;37.95;;;;;;;1.06;100.00;102655.91;4984467;28;20038;-60
2022/01/19 06:52:10;;;;;;;62.50;35.08;;;;;;;1.06;100.00;102648.63;4983757;28;20026;-61
2022/01/19 06:54:35;;;;;;;64.25;33.67;;;;;;;1.08;100.00;102646.69;4981717;28;20074;-61
2022/01/19 06:57:00;;;;;;;68.57;35.42;;;;;;;1.13;100.00;102644.47;4984507;28;20018;-61
2022/01/19 06:59:26;;;;;;;69.00;36.15;;;;;;;1.12;100.00;102644.59;4983307;28;20073;-60
2022/01/19 07:01:51;;;;;;;62.60;33.72;;;;;;;1.11;100.00;102632.03;4984804;28;20390;-60
2022/01/19 07:04:17;;;;;;;55.28;29.55;;;;;;;1.11;100.00;102624.75;4984561;28;20433;-61
2022/01/19 07:06:43;;;;;;;57.55;30.55;;;;;;;1.12;100.00;102628.38;4984153;28;20042;-60
2022/01/19 07:09:08;;;;;;;54.38;32.00;;;;;;;1.16;100.00;102637.94;4984229;28;20058;-61
2022/01/19 07:11:36;;;;;;;60.20;34.47;;;;;;;1.15;100.00;102642.47;4984325;28;20041;-61
2022/01/19 07:14:02;;;;;;;62.78;32.70;;;;;;;1.15;100.00;102639.78;4983607;28;20026;-61
2022/01/19 07:16:27;;;;;;;53.95;30.48;;;;;;;1.17;100.00;102626.13;4984739;28;20034;-60
2022/01/19 07:18:52;;;;;;;59.40;32.83;;;;;;;1.17;100.00;102629.69;4984423;28;20370;-60
2022/01/19 07:21:18;;;;;;;57.08;32.58;;;;;;;1.18;100.00;102625.16;4984094;28;20062;-60
2022/01/19 07:23:43;;;;;;;56.28;31.40;;;;;;;1.20;100.00;102628.56;4983838;28;20026;-61
2022/01/19 07:26:08;;;;;;;53.28;29.92;;;;;;;1.23;100.00;102620.22;4983657;28;20475;-61
2022/01/19 07:28:33;;;;;;;54.20;30.23;;;;;;;1.22;100.00;102622.06;4984174;28;20042;-61
2022/01/19 07:30:59;;;;;;;51.85;29.63;;;;;;;1.29;100.00;102612.44;4983380;28;20026;-61
2022/01/19 07:33:24;;;;;;;49.95;30.08;;;;;;;1.34;100.00;102613.91;4984093;28;20396;-61
2022/01/19 07:35:51;;;;;;;52.95;29.33;;;;;;;1.29;100.00;102607.03;4984219;28;20026;-61
2022/01/19 07:38:18;;;;;;;51.90;29.63;;;;;;;1.33;100.00;102612.19;4983890;28;20049;-60
2022/01/19 07:40:43;;;;;;;53.55;29.73;;;;;;;1.33;100.00;102614.91;4983770;28;20495;-61
2022/01/19 07:43:08;;;;;;;49.35;30.00;;;;;;;1.35;100.00;102616.47;4983801;28;20523;-61
2022/01/19 07:45:34;;;;;;;48.72;28.55;;;;;;;1.36;100.00;102615.50;4983537;28;20030;-61
2022/01/19 07:47:59;;;;;;;51.83;29.25;;;;;;;1.37;100.00;102616.34;4984340;28;20029;-60
2022/01/19 07:50:24;;;;;;;57.30;31.35;;;;;;;1.36;100.00;102620.91;4983557;28;20441;-61
2022/01/19 07:52:50;;;;;;;52.22;29.52;;;;;;;1.39;100.00;102611.69;4984025;28;20045;-61
2022/01/19 07:55:15;;;;;;;49.25;29.13;;;;;;;1.39;100.00;102617.97;4983253;28;20492;-61
2022/01/19 07:57:45;;;;;;;56.47;30.50;;;;;;;1.42;100.00;102608.72;4983291;28;20068;-61
2022/01/19 08:00:10;;;;;;;50.42;29.77;;;;;;;1.40;100.00;102608.84;4983062;28;20051;-60
2022/01/19 08:02:36;;;;;;;53.22;29.30;;;;;;;1.41;100.00;102607.84;4983625;28;20100;-61
2022/01/19 08:05:02;;;;;;;55.75;30.38;;;;;;;1.45;100.00;102594.94;4983908;28;20121;-61
2022/01/19 08:07:28;;;;;;;53.97;30.98;;;;;;;1.49;100.00;102607.22;4983834;28;20074;-61
2022/01/19 08:09:53;;;;;;;56.95;30.25;;;;;;;1.49;100.00;102599.09;4982994;28;20127;-60
2022/01/19 08:12:19;;;;;;;53.55;31.17;;;;;;;1.49;100.00;102590.97;4984228;28;20111;-60
2022/01/19 08:14:44;;;;;;;54.90;30.88;;;;;;;1.48;100.00;102590.13;4987068;28;20125;-61
2022/01/19 08:17:11;;;;;;;49.03;29.23;;;;;;;1.51;100.00;102584.44;4986938;28;20015;-61
2022/01/19 08:19:36;;;;;;;49.00;27.37;;;;;;;1.59;100.00;102580.22;4987651;28;20097;-61
2022/01/19 08:22:02;;;;;;;50.90;27.90;;;;;;;1.52;100.00;102579.88;4987231;28;20138;-61
2022/01/19 08:24:27;;;;;;;51.22;28.83;;;;;;;1.53;100.00;102584.31;4987357;28;20066;-61
2022/01/19 08:26:54;;;;;;;54.88;29.85;;;;;;;1.58;100.00;102581.22;4986708;28;20030;-60
2022/01/19 08:29:20;;;;;;;46.17;26.73;;;;;;;1.60;100.00;102579.25;4986354;28;20492;-60
2022/01/19 08:31:45;;;;;;;49.63;28.67;;;;;;;1.61;100.00;102584.50;4985246;28;20062;-60
2022/01/19 08:34:10;;;;;;;54.50;28.83;;;;;;;1.64;100.00;102581.56;4986758;28;20113;-60
2022/01/19 08:36:35;;;;;;;50.85;29.10;;;;;;;1.65;100.00;102582.41;4986999;28;20350;-60
2022/01/19 08:39:01;;;;;;;49.30;29.15;;;;;;;1.69;100.00;102581.19;4987791;28;20057;-60
2022/01/19 08:41:26;;;;;;;49.65;25.80;;;;;;;1.72;100.00;102576.34;4986211;28;20022;-60
2022/01/19 08:43:51;;;;;;;51.40;29.20;;;;;;;1.70;100.00;102564.78;4986031;28;20085;-60
2022/01/19 08:46:17;;;;;;;48.75;28.23;;;;;;;1.73;100.00;102566.38;4985986;28;20034;-60
2022/01/19 08:48:42;;;;;;;48.35;27.38;;;;;;;1.76;100.00;102556.13;4986137;28;20058;-60
2022/01/19 08:51:08;;;;;;;50.75;28.77;;;;;;;1.77;100.00;102551.56;4984908;28;20029;-60
2022/01/19 08:53:33;;;;;;;50.40;29.50;;;;;;;1.78;100.00;102548.75;4986567;28;20033;-61
2022/01/19 08:55:58;;;;;;;54.72;30.45;;;;;;;1.82;100.00;102543.91;4985810;28;20022;-60
2022/01/19 08:58:24;;;;;;;48.97;28.58;;;;;;;1.83;100.00;102545.66;4981274;28;20026;-61
2022/01/19 09:00:50;;;;;;;48.05;27.92;;;;;;;1.88;100.00;102546.13;4986113;28;20446;-60
2022/01/19 09:03:16;;;;;;;48.47;27.08;;;;;;;1.89;100.00;102550.53;4984766;28;20030;-60
2022/01/19 09:05:42;;;;;;;48.30;28.52;;;;;;;1.94;100.00;102539.31;4986118;28;20106;-60
2022/01/19 09:08:08;;;;;;;46.70;27.60;;;;;;;1.94;100.00;102542.00;4983880;28;20477;-60
2022/01/19 09:10:34;;;;;;;46.53;27.30;;;;;;;1.96;100.00;102535.44;4986281;28;20034;-60
2022/01/19 09:12:59;;;;;;;46.00;27.27;;;;;;;2.00;100.00;102527.91;4978872;28;20023;-60
2022/01/19 09:15:25;;;;;;;45.63;26.88;;;;;;;1.98;100.00;102522.66;4975348;28;20026;-60
2022/01/19 09:17:52;;;;;;;46.80;27.58;;;;;;;2.02;100.00;102520.50;4983849;28;20540;-60
2022/01/19 09:20:17;;;;;;;48.50;27.33;;;;;;;2.05;100.00;102521.09;4985841;28;20026;-60
2022/01/19 09:22:43;;;;;;;46.20;26.50;;;;;;;2.10;100.00;102525.28;4980355;28;20023;-61
2022/01/19 09:25:10;;;;;;;46.38;27.02;;;;;;;2.07;100.00;102529.09;4985439;28;20528;-61
2022/01/19 09:27:38;;;;;;;48.17;29.15;;;;;;;2.12;100.00;102523.28;4982069;28;20045;-60
2022/01/19 09:30:07;;;;;;;49.22;28.15;;;;;;;2.15;100.00;102518.44;4981811;28;20312;-61
2022/01/19 09:32:32;;;;;;;47.00;26.92;;;;;;;2.16;100.00;102512.03;4984761;28;20121;-61
2022/01/19 09:35:06;;;;;;;47.75;29.30;;;;;;;2.18;100.00;102506.47;4974419;28;20110;-60
2022/01/19 09:37:31;;;;;;;45.78;26.25;;;;;;;2.17;100.00;102500.19;4987876;28;20018;-61
2022/01/19 09:39:57;;;;;;;47.28;26.58;;;;;;;2.21;99.90;102500.78;4985284;28;20113;-60
2022/01/19 09:42:22;;;;;;;45.63;26.08;;;;;;;2.21;100.00;102495.38;4985054;28;20022;-60
2022/01/19 09:44:47;;;;;;;49.05;27.33;;;;;;;2.22;100.00;102491.66;4985232;28;20100;-60
2022/01/19 09:47:13;;;;;;;46.08;26.75;;;;;;;2.27;100.00;102489.41;4976929;28;20752;-60
2022/01/19 09:49:39;;;;;;;47.13;26.90;;;;;;;2.25;100.00;102481.41;4965917;28;20046;-61
2022/01/19 09:52:05;;;;;;;44.88;26.50;;;;;;;2.27;100.00;102479.41;4970365;28;20028;-61
2022/01/19 09:54:30;;;;;;;49.05;28.27;;;;;;;2.31;100.00;102483.56;4989088;28;20030;-60
2022/01/19 09:56:57;;;;;;;49.17;28.02;;;;;;;2.33;100.00;102478.88;4967951;28;20382;-60
2022/01/19 09:59:23;;;;;;;45.20;26.40;;;;;;;2.38;100.00;102464.88;4975757;28;20485;-61
2022/01/19 10:01:56;;;;;;;48.92;28.77;;;;;;;2.42;99.73;102471.75;4974058;28;20029;-60
2022/01/19 10:04:24;;;;;;;45.33;27.80;;;;;;;2.44;99.93;102468.94;4977794;28;20038;-60
2022/01/19 10:07:07;;;;;;;;;;;;;;;2.52;99.42;102459.09;4982584;28;20073;-60
2022/01/19 10:09:33;;;;;;;40.75;24.08;;;;;;;2.50;98.99;102452.97;4972108;28;19961;-61
2022/01/19 10:17:14;;;;;;;45.20;26.13;;;;;;;2.56;99.33;102467.81;4983322;28;20097;-60
2022/01/19 10:19:42;;;;;;;43.70;25.10;;;;;;;2.55;98.95;102460.69;4968571;28;20030;-61
2022/01/19 10:22:19;;;;;;;42.33;26.88;;;;;;;2.60;98.99;102451.13;4983212;28;20026;-61
2022/01/19 10:25:02;;;;;;;45.63;27.48;;;;;;;2.64;99.16;102448.16;4967752;28;20042;-60
2022/01/19 10:27:41;;;;;;;43.08;26.13;;;;;;;2.69;99.19;102444.00;4966891;28;20031;-61
2022/01/19 10:30:06;;;;;;;43.13;27.25;;;;;;;2.73;98.69;102436.44;4964618;28;20492;-61
2022/01/19 10:32:46;;;;;;;43.73;26.73;;;;;;;2.80;98.97;102430.31;4965564;28;20035;-61
2022/01/19 10:35:26;;;;;;;41.78;26.63;;;;;;;2.82;98.37;102433.72;4978701;28;20033;-61
2022/01/19 10:38:07;;;;;;;41.72;26.60;;;;;;;2.92;98.09;102425.59;4973139;28;20378;-60
2022/01/19 10:40:33;;;;;;;41.63;25.30;;;;;;;2.90;98.08;102424.06;4971730;28;20046;-61
2022/01/19 10:42:58;;;;;;;43.08;26.25;;;;;;;2.91;98.76;102423.91;4981033;28;20030;-60
2022/01/19 10:45:24;;;;;;;45.65;27.00;;;;;;;2.93;98.31;102421.88;4982786;28;20048;-60
2022/01/19 10:47:56;;;;;;;44.03;26.60;;;;;;;2.98;98.30;102424.19;4984619;28;20034;-61
2022/01/19 10:50:25;;;;;;;41.42;25.38;;;;;;;3.01;98.11;102416.63;4982781;28;20721;-60
2022/01/19 10:52:53;;;;;;;37.60;24.60;;;;;;;3.03;98.19;102411.03;4980608;28;20026;-60
2022/01/19 10:55:29;;;;;;;37.50;23.27;;;;;;;3.06;98.28;102406.19;4965032;28;20019;-61
2022/01/19 10:57:55;;;;;;;42.83;24.98;;;;;;;3.08;98.64;102408.75;4972055;28;20543;-61
2022/01/19 11:00:30;;;;;;;42.67;25.50;;;;;;;3.09;98.40;102405.03;4981706;28;20424;-61
2022/01/19 11:03:15;;;;;;;40.30;25.67;;;;;;;3.15;98.19;102395.47;4974431;28;20380;-61
2022/01/19 11:05:44;;;;;;;40.28;25.55;;;;;;;3.15;98.03;102392.78;4983596;28;20037;-61
2022/01/19 11:08:11;;;;;;;40.67;24.83;;;;;;;3.15;98.33;102387.34;4975597;28;20506;-61
2022/01/19 11:10:37;;;;;;;43.00;25.35;;;;;;;3.18;98.50;102387.88;4983241;28;20030;-61
2022/01/19 11:13:05;;;;;;;39.70;24.17;;;;;;;3.26;97.66;102379.88;4982808;28;20031;-61
2022/01/19 11:15:30;;;;;;;37.78;23.73;;;;;;;3.23;98.00;102371.16;4983476;28;20080;-61
2022/01/19 11:17:56;;;;;;;42.30;25.75;;;;;;;3.25;97.61;102370.03;4970721;28;20007;-61
2022/01/19 11:20:24;;;;;;;43.05;25.80;;;;;;;3.25;98.19;102370.03;4978500;28;20034;-60
2022/01/19 11:23:07;;;;;;;40.65;24.13;;;;;;;3.25;98.15;102374.59;4973434;28;20251;-60
2022/01/19 11:25:49;;;;;;;40.58;25.70;;;;;;;3.27;97.94;102359.88;4974551;28;20044;-61
2022/01/19 11:28:33;;;;;;;47.50;26.67;;;;;;;3.30;97.67;102356.03;4982932;28;20026;-60
2022/01/19 11:31:00;;;;;;;44.85;26.45;;;;;;;3.30;97.81;102345.16;4983979;28;20049;-60
2022/01/19 11:33:28;;;;;;;42.85;25.63;;;;;;;3.27;98.03;102337.28;4983771;28;20031;-60
2022/01/19 11:35:55;;;;;;;;;;;;;;;3.33;97.98;102332.13;4977146;28;20054;-60
2022/01/19 11:38:31;;;;;;;45.47;24.35;;;;;;;3.28;97.64;102333.56;4964824;28;20749;-60
2022/01/19 11:41:07;;;;;;;43.53;26.08;;;;;;;3.31;97.35;102327.84;4965492;28;20073;-60
2022/01/19 11:43:33;;;;;;;42.30;25.88;;;;;;;3.29;97.93;102321.69;4967961;28;20026;-60
2022/01/19 11:46:00;;;;;;;46.08;27.48;;;;;;;3.30;98.23;102315.28;4977015;28;20031;-61
2022/01/19 11:48:28;;;;;;;43.45;25.35;;;;;;;3.33;97.73;102310.41;4971155;28;20905;-61
2022/01/19 11:51:26;;;;;;;47.17;26.88;;;;;;;3.38;97.78;102307.25;4973877;28;20030;-60
2022/01/19 11:54:08;;;;;;;49.35;28.40;;;;;;;3.36;97.68;102301.13;4968448;28;20038;-61
2022/01/19 11:56:59;;;;;;;46.72;27.60;;;;;;;3.34;98.13;102294.97;4967402;28;20015;-61
2022/01/19 11:59:30;;;;;;;46.25;27.35;;;;;;;3.34;97.62;102284.94;4967066;28;20037;-60
2022/01/19 12:02:21;;;;;;;47.13;28.00;;;;;;;3.43;97.49;102279.66;4967527;28;20031;-60
2022/01/19 12:04:52;;;;;;;46.25;28.52;;;;;;;3.35;97.62;102281.25;4979782;28;20066;-60
2022/01/19 12:07:41;;;;;;;48.63;28.30;;;;;;;3.36;97.42;102282.09;4968368;28;20565;-61
2022/01/19 12:10:09;;;;;;;46.72;28.73;;;;;;;3.36;97.38;102272.09;4967639;28;20026;-61
2022/01/19 12:12:43;;;;;;;53.08;29.48;;;;;;;3.38;97.44;102264.66;4967471;28;20018;-61
2022/01/19 12:15:28;;;;;;;52.33;28.90;;;;;;;3.42;97.03;102257.06;4986346;28;20023;-61
2022/01/19 12:17:55;;;;;;;51.10;29.77;;;;;;;3.46;97.24;102257.63;4981998;28;20463;-61
2022/01/19 12:20:52;;;;;;;54.15;31.17;;;;;;;3.51;97.47;102248.03;4967644;28;20030;-60
2022/01/19 12:23:28;;;;;;;50.15;29.95;;;;;;;3.62;97.28;102239.66;4970791;28;20635;-60
2022/01/19 12:25:56;;;;;;;49.95;30.48;;;;;;;3.64;96.08;102226.78;4966871;28;20093;-61
2022/01/19 12:28:45;;;;;;;52.30;30.47;;;;;;;3.68;96.97;102221.91;4966412;28;20031;-61
2022/01/19 12:31:26;;;;;;;54.08;31.65;;;;;;;3.78;96.53;102206.41;4967172;28;20108;-60
2022/01/19 12:34:20;;;;;;;51.83;31.65;;;;;;;3.89;95.34;102219.75;4981143;28;20109;-61
2022/01/19 12:36:54;;;;;;;54.72;31.45;;;;;;;3.90;94.48;102218.78;4968531;28;20039;-60
2022/01/19 12:39:25;;;;;;;55.20;32.28;;;;;;;3.91;95.03;102227.78;4966680;28;20090;-60
2022/01/19 12:42:00;;;;;;;57.05;33.20;;;;;;;3.93;94.73;102212.16;4968109;28;20366;-60
2022/01/19 12:44:34;;;;;;;55.47;31.27;;;;;;;3.92;94.58;102209.59;4966352;28;20417;-60
2022/01/19 12:46:59;;;;;;;55.58;32.92;;;;;;;3.97;93.69;102205.41;4967457;28;20514;-60